createdAt,value
2022-11-22T00:02:07.133Z,56.65
2022-11-22T00:04:34.349Z,70.10
2022-11-22T00:07:01.737Z,67.18
2022-11-22T00:09:28.939Z,58.35
2022-11-22T00:11:56.498Z,89.97
2022-11-22T00:14:23.550Z,57.45
2022-11-22T00:16:50.831Z,57.13
2022-11-22T00:19:17.883Z,51.60
2022-11-22T00:21:45.171Z,55.33
2022-11-22T00:24:15.375Z,64.80
2022-11-22T00:26:42.620Z,68.75
2022-11-22T00:29:09.723Z,71.00
2022-11-22T00:31:36.949Z,66.13
2022-11-22T00:34:04.020Z,102.88
2022-11-22T00:36:31.364Z,76.25
2022-11-22T00:38:58.349Z,49.97
2022-11-22T00:41:25.640Z,60.83
2022-11-22T00:43:52.615Z,58.00
2022-11-22T00:46:19.939Z,56.22
2022-11-22T00:48:46.940Z,46.50
2022-11-22T00:51:14.411Z,56.83
2022-11-22T00:53:41.535Z,55.08
2022-11-22T00:56:08.794Z,68.45
2022-11-22T00:58:35.773Z,106.90
2022-11-22T01:01:03.103Z,64.82
2022-11-22T01:03:30.107Z,91.88
2022-11-22T01:05:57.354Z,59.00
2022-11-22T01:08:24.329Z,55.80
2022-11-22T01:10:59.896Z,65.57
2022-11-22T01:13:28.976Z,62.30
2022-11-22T01:16:09.834Z,78.20
2022-11-22T01:18:37.170Z,53.85
2022-11-22T01:21:05.969Z,122.10
2022-11-22T01:23:35.146Z,51.22
2022-11-22T01:26:02.646Z,80.65
2022-11-22T01:28:29.685Z,78.00
2022-11-22T01:30:57.098Z,64.75
2022-11-22T01:33:24.344Z,60.15
2022-11-22T01:35:51.842Z,61.88
2022-11-22T01:38:18.793Z,57.83
2022-11-22T01:40:46.068Z,69.38
2022-11-22T01:43:24.890Z,67.47
2022-11-22T01:45:55.599Z,63.03
2022-11-22T01:48:34.314Z,64.95
2022-11-22T01:51:35.299Z,79.53
2022-11-22T01:54:07.764Z,69.18
2022-11-22T01:56:37.072Z,68.45
2022-11-22T01:59:09.683Z,59.67
2022-11-22T02:01:37.550Z,57.38
2022-11-22T02:04:09.587Z,58.85
2022-11-22T02:07:05.843Z,63.63
2022-11-22T02:09:34.206Z,60.38
2022-11-22T02:12:03.692Z,55.17
2022-11-22T02:14:32.162Z,57.45
2022-11-22T02:16:59.416Z,54.08
2022-11-22T02:19:46.898Z,56.25
2022-11-22T02:22:17.103Z,57.38
2022-11-22T02:24:51.927Z,61.13
2022-11-22T02:27:19.240Z,61.35
2022-11-22T02:29:46.550Z,57.63
2022-11-22T02:32:13.817Z,55.53
2022-11-22T02:34:50.718Z,55.80
2022-11-22T02:37:22.617Z,65.20
2022-11-22T02:39:56.124Z,58.30
2022-11-22T02:42:26.042Z,74.40
2022-11-22T02:44:53.001Z,80.30
2022-11-22T02:47:20.195Z,88.85
2022-11-22T02:49:47.306Z,72.53
2022-11-22T02:52:19.111Z,63.05
2022-11-22T02:54:46.430Z,80.32
2022-11-22T02:57:13.970Z,94.10
2022-11-22T02:59:41.023Z,61.50
2022-11-22T03:02:08.345Z,59.78
2022-11-22T03:04:35.373Z,62.65
2022-11-22T03:07:03.019Z,70.07
2022-11-22T03:09:30.439Z,100.53
2022-11-22T03:11:58.050Z,76.13
2022-11-22T03:14:25.094Z,96.80
2022-11-22T03:16:52.559Z,98.80
2022-11-22T03:19:19.587Z,85.15
2022-11-22T03:21:46.868Z,57.90
2022-11-22T03:24:14.234Z,61.83
2022-11-22T03:26:41.460Z,75.10
2022-11-22T03:29:08.408Z,62.35
2022-11-22T03:31:36.176Z,67.28
2022-11-22T03:34:03.290Z,59.28
2022-11-22T03:36:30.497Z,56.80
2022-11-22T03:38:58.822Z,64.35
2022-11-22T03:41:26.687Z,54.78
2022-11-22T03:43:54.143Z,57.47
2022-11-22T03:46:22.037Z,57.20
2022-11-22T03:48:49.144Z,55.33
2022-11-22T03:51:16.414Z,61.60
2022-11-22T03:53:43.429Z,50.95
2022-11-22T03:56:10.725Z,52.33
2022-11-22T03:58:37.702Z,55.13
2022-11-22T04:01:05.186Z,55.55
2022-11-22T04:03:32.278Z,56.83
2022-11-22T04:05:59.548Z,50.45
2022-11-22T04:08:26.862Z,45.45
2022-11-22T04:10:54.130Z,47.33
2022-11-22T04:13:21.493Z,47.67
2022-11-22T04:15:48.725Z,52.33
2022-11-22T04:18:15.751Z,90.90
2022-11-22T04:21:01.509Z,92.28
2022-11-22T04:26:02.590Z,66.03
2022-11-22T04:29:01.829Z,77.65
2022-11-22T04:31:35.351Z,75.78
2022-11-22T04:36:29.565Z,105.38
2022-11-22T04:38:56.490Z,64.00
2022-11-22T04:41:23.967Z,66.18
2022-11-22T04:44:09.303Z,55.13
2022-11-22T04:46:37.144Z,58.80
2022-11-22T04:49:04.234Z,58.42
2022-11-22T04:52:03.624Z,82.55
2022-11-22T04:54:30.588Z,75.97
2022-11-22T04:56:58.164Z,68.60
2022-11-22T04:59:25.335Z,59.95
2022-11-22T05:01:52.906Z,54.90
2022-11-22T05:04:20.005Z,46.72
2022-11-22T05:06:47.240Z,41.15
2022-11-22T05:09:14.337Z,42.92
2022-11-22T05:11:41.587Z,49.75
2022-11-22T05:14:09.787Z,55.22
2022-11-22T05:16:37.107Z,48.47
2022-11-22T05:19:04.408Z,46.42
2022-11-22T05:21:33.295Z,46.13
2022-11-22T05:24:00.286Z,61.38
2022-11-22T05:26:33.487Z,48.70
2022-11-22T05:29:07.966Z,39.58
2022-11-22T05:31:37.316Z,40.22
2022-11-22T05:34:05.320Z,39.90
2022-11-22T05:36:34.506Z,39.03
2022-11-22T05:39:02.141Z,40.25
2022-11-22T05:41:29.458Z,40.05
2022-11-22T05:43:56.792Z,47.60
2022-11-22T05:46:28.756Z,45.30
2022-11-22T05:48:57.358Z,46.08
2022-11-22T05:51:32.279Z,40.20
2022-11-22T05:54:01.512Z,47.05
2022-11-22T05:56:28.859Z,51.13
2022-11-22T05:58:55.912Z,64.13
2022-11-22T06:01:24.497Z,51.58
2022-11-22T06:03:51.942Z,85.82
2022-11-22T06:06:22.158Z,61.33
2022-11-22T06:08:51.173Z,49.13
2022-11-22T06:11:23.486Z,46.28
2022-11-22T06:13:53.395Z,49.17
2022-11-22T06:16:21.309Z,50.53
2022-11-22T06:18:48.540Z,68.25
2022-11-22T06:21:19.408Z,68.15
2022-11-22T06:23:46.712Z,68.45
2022-11-22T06:26:16.760Z,64.53
2022-11-22T06:28:45.397Z,51.95
2022-11-22T06:31:21.018Z,78.55
2022-11-22T06:33:48.236Z,57.35
2022-11-22T06:36:24.241Z,91.35
2022-11-22T06:38:52.054Z,63.80
2022-11-22T06:41:32.917Z,65.60
2022-11-22T06:43:59.972Z,87.70
2022-11-22T06:46:27.797Z,70.30
2022-11-22T06:48:54.898Z,51.90
2022-11-22T06:51:30.471Z,57.20
2022-11-22T06:53:58.208Z,48.45
2022-11-22T06:56:31.087Z,70.40
2022-11-22T06:59:01.145Z,49.00
2022-11-22T07:01:29.581Z,46.35
2022-11-22T07:04:00.488Z,53.78
2022-11-22T07:06:33.077Z,49.92
2022-11-22T07:09:01.725Z,71.10
2022-11-22T07:11:31.075Z,54.70
2022-11-22T07:14:05.310Z,46.03
2022-11-22T07:16:35.674Z,44.53
2022-11-22T07:19:03.225Z,60.47
2022-11-22T07:21:30.630Z,58.80
2022-11-22T07:23:57.719Z,48.55
2022-11-22T07:26:26.316Z,75.90
2022-11-22T07:28:53.361Z,70.80
2022-11-22T07:31:21.339Z,66.45
2022-11-22T07:33:48.706Z,70.82
2022-11-22T07:36:21.753Z,66.20
2022-11-22T07:38:49.464Z,57.67
2022-11-22T07:41:18.350Z,42.50
2022-11-22T07:43:46.937Z,48.53
2022-11-22T07:46:21.872Z,47.95
2022-11-22T07:48:49.800Z,47.53
2022-11-22T07:51:17.467Z,44.15
2022-11-22T07:53:44.646Z,55.45
2022-11-22T07:56:12.609Z,45.15
2022-11-22T07:58:40.129Z,41.35
2022-11-22T08:01:14.759Z,46.40
2022-11-22T08:03:42.915Z,38.50
2022-11-22T08:06:13.684Z,49.55
2022-11-22T08:08:40.921Z,31.00
2022-11-22T08:11:08.635Z,50.58
2022-11-22T08:13:36.181Z,38.95
2022-11-22T08:16:07.305Z,58.75
2022-11-22T08:18:35.635Z,36.55
2022-11-22T08:21:07.606Z,40.63
2022-11-22T08:23:35.764Z,98.00
2022-11-22T08:26:08.166Z,80.47
2022-11-22T08:28:46.798Z,58.45
2022-11-22T08:31:21.195Z,36.22
2022-11-22T08:33:54.523Z,86.45
2022-11-22T08:36:22.182Z,67.75
2022-11-22T08:38:49.261Z,47.08
2022-11-22T08:41:16.562Z,42.60
2022-11-22T08:43:43.675Z,47.80
2022-11-22T08:46:11.681Z,46.65
2022-11-22T08:48:40.572Z,44.80
2022-11-22T08:51:10.846Z,69.50
2022-11-22T08:53:40.906Z,31.48
2022-11-22T08:56:11.116Z,27.58
2022-11-22T08:58:39.002Z,48.90
2022-11-22T09:01:07.680Z,52.00
2022-11-22T09:03:35.577Z,47.90
2022-11-22T09:09:08.544Z,38.88
2022-11-22T09:11:36.315Z,45.05
2022-11-22T09:14:03.353Z,59.60
2022-11-22T09:16:30.643Z,26.45
2022-11-22T09:18:57.686Z,37.90
2022-11-22T09:21:25.070Z,50.83
2022-11-22T09:23:54.553Z,32.42
2022-11-22T09:26:27.278Z,32.65
2022-11-22T09:28:54.393Z,30.15
2022-11-22T09:31:23.632Z,30.98
2022-11-22T09:33:51.805Z,32.00
2022-11-22T09:36:26.244Z,34.72
2022-11-22T09:38:54.383Z,35.33
2022-11-22T09:41:39.550Z,35.60
2022-11-22T09:44:19.066Z,40.30
2022-11-22T09:47:10.038Z,44.58
2022-11-22T09:50:23.096Z,46.08
2022-11-22T09:53:09.438Z,41.65
2022-11-22T09:55:47.660Z,45.47
2022-11-22T09:58:42.498Z,75.28
2022-11-22T10:01:16.751Z,62.83
2022-11-22T10:04:08.971Z,44.33
2022-11-22T10:06:42.435Z,59.97
2022-11-22T10:09:41.135Z,50.60
2022-11-22T10:12:25.686Z,57.97
2022-11-22T10:15:02.625Z,44.50
2022-11-22T10:17:40.171Z,48.97
2022-11-22T10:20:07.566Z,55.03
2022-11-22T10:22:35.514Z,49.28
2022-11-22T10:25:13.553Z,34.90
2022-11-22T10:27:41.947Z,41.83
2022-11-22T10:30:19.870Z,45.67
2022-11-22T10:32:56.752Z,56.10
2022-11-22T10:35:31.017Z,48.95
2022-11-22T10:38:35.100Z,40.05
2022-11-22T10:41:18.724Z,45.95
2022-11-22T10:43:55.305Z,51.20
2022-11-22T10:46:50.094Z,69.55
2022-11-22T10:49:54.857Z,55.35
2022-11-22T10:52:27.996Z,43.58
2022-11-22T10:55:04.586Z,39.25
2022-11-22T10:57:48.535Z,38.90
2022-11-22T11:00:25.070Z,34.40
2022-11-22T11:03:06.646Z,51.55
2022-11-22T11:09:23.505Z,51.88
2022-11-22T11:11:33.736Z,70.00
2022-11-22T11:14:48.569Z,41.03
2022-11-22T11:17:29.874Z,42.10
2022-11-22T11:20:03.049Z,64.75
2022-11-22T11:23:06.306Z,68.70
2022-11-22T11:25:31.189Z,41.83
2022-11-22T11:28:03.129Z,44.28
2022-11-22T11:30:46.077Z,41.90
2022-11-22T11:33:21.051Z,39.03
2022-11-22T11:35:48.587Z,43.78
2022-11-22T11:38:31.333Z,32.10
2022-11-22T11:41:15.613Z,50.63
2022-11-22T11:43:43.972Z,42.28
2022-11-22T11:46:20.188Z,40.72
2022-11-22T11:48:48.972Z,36.90
2022-11-22T11:51:21.209Z,51.92
2022-11-22T11:53:56.430Z,38.97
2022-11-22T11:56:30.096Z,43.05
2022-11-22T11:58:59.291Z,39.80
2022-11-22T12:01:27.097Z,45.83
2022-11-22T12:03:59.494Z,30.60
2022-11-22T12:06:33.824Z,35.70
2022-11-22T12:09:07.928Z,42.70
2022-11-22T12:11:50.790Z,38.75
2022-11-22T12:14:22.872Z,38.08
2022-11-22T12:16:57.244Z,37.92
2022-11-22T12:19:59.850Z,44.67
2022-11-22T12:22:57.413Z,38.03
2022-11-22T12:25:38.564Z,37.80
2022-11-22T12:28:22.562Z,38.85
2022-11-22T12:31:25.200Z,36.10
2022-11-22T12:34:10.582Z,22.45
2022-11-22T12:36:49.187Z,38.30
2022-11-22T12:39:23.238Z,30.75
2022-11-22T12:41:59.382Z,35.10
2022-11-22T12:44:29.207Z,28.15
2022-11-22T12:47:06.803Z,39.08
2022-11-22T12:49:46.506Z,54.95
2022-11-22T12:52:35.120Z,65.20
2022-11-22T12:55:11.154Z,39.58
2022-11-22T12:57:51.290Z,42.85
2022-11-22T13:00:22.352Z,56.45
2022-11-22T13:02:52.148Z,33.35
2022-11-22T13:05:29.185Z,35.90
2022-11-22T13:08:14.504Z,35.97
2022-11-22T13:10:55.089Z,36.75
2022-11-22T13:13:27.600Z,34.92
2022-11-22T13:16:00.142Z,37.17
2022-11-22T13:18:32.342Z,40.15
2022-11-22T13:21:22.200Z,52.28
2022-11-22T13:24:02.082Z,39.20
2022-11-22T13:26:35.591Z,40.08
2022-11-22T13:29:18.860Z,38.25
2022-11-22T13:32:12.144Z,39.35
2022-11-22T13:35:06.881Z,31.08
2022-11-22T13:37:39.242Z,34.33
2022-11-22T13:40:21.659Z,36.42
2022-11-22T13:43:15.579Z,41.60
2022-11-22T13:45:55.252Z,36.38
2022-11-22T13:48:42.883Z,36.38
2022-11-22T13:51:15.430Z,39.28
2022-11-22T13:53:44.718Z,50.00
2022-11-22T13:56:27.370Z,33.88
2022-11-22T13:59:12.285Z,32.10
2022-11-22T14:01:39.628Z,31.52
2022-11-22T14:04:15.804Z,29.48
2022-11-22T14:07:10.101Z,39.13
2022-11-22T14:09:45.471Z,33.20
2022-11-22T14:15:09.781Z,36.22
2022-11-22T14:18:05.997Z,46.15
2022-11-22T14:21:00.390Z,43.92
2022-11-22T14:23:51.740Z,34.70
2022-11-22T14:26:50.036Z,32.28
2022-11-22T14:29:23.183Z,32.42
2022-11-22T14:32:04.227Z,43.42
2022-11-22T14:34:31.923Z,35.13
2022-11-22T14:37:11.321Z,53.83
2022-11-22T14:40:00.694Z,36.20
2022-11-22T14:42:48.827Z,32.20
2022-11-22T14:45:24.772Z,31.80
2022-11-22T14:47:52.344Z,40.30
2022-11-22T14:50:40.414Z,33.60
2022-11-22T14:53:19.235Z,32.28
2022-11-22T14:55:47.772Z,30.98
2022-11-22T14:58:23.456Z,29.85
2022-11-22T15:01:19.702Z,47.95
2022-11-22T15:09:09.897Z,33.47
2022-11-22T15:09:10.281Z,34.95
2022-11-22T15:10:28.631Z,26.15
2022-11-22T15:13:33.786Z,42.80
2022-11-22T15:59:24.690Z,18.60
2022-11-22T16:01:55.943Z,28.60
2022-11-22T16:04:29.487Z,33.00
2022-11-22T16:06:59.998Z,40.42
2022-11-22T16:09:34.030Z,29.17
2022-11-22T16:12:06.988Z,33.60
2022-11-22T16:14:51.031Z,31.63
2022-11-22T16:17:35.677Z,30.25
2022-11-22T16:20:36.369Z,35.10
2022-11-22T16:23:09.572Z,32.50
2022-11-22T16:25:45.832Z,32.35
2022-11-22T16:28:33.939Z,35.15
2022-11-22T16:31:22.763Z,34.40
2022-11-22T16:33:53.223Z,29.17
2022-11-22T16:36:21.589Z,28.08
2022-11-22T16:38:48.947Z,28.63
2022-11-22T16:41:27.984Z,32.22
2022-11-22T16:44:06.743Z,46.50
2022-11-22T16:46:33.673Z,31.05
2022-11-22T16:49:01.315Z,41.10
2022-11-22T16:51:30.064Z,61.17
2022-11-22T16:54:06.422Z,48.00
2022-11-22T16:56:33.796Z,42.00
2022-11-22T16:59:01.779Z,39.47
2022-11-22T17:01:33.368Z,45.60
2022-11-22T17:04:02.818Z,32.58
2022-11-22T17:06:31.266Z,36.33
2022-11-22T17:09:00.307Z,39.08
2022-11-22T17:11:30.869Z,20.45
2022-11-22T17:13:59.684Z,35.88
2022-11-22T17:16:26.823Z,32.42
2022-11-22T17:18:54.434Z,42.33
2022-11-22T17:21:41.458Z,59.42
2022-11-22T17:24:19.322Z,41.70
2022-11-22T17:26:46.674Z,58.10
2022-11-22T17:29:29.004Z,35.58
2022-11-22T17:32:01.276Z,33.13
2022-11-22T17:34:30.469Z,35.03
2022-11-22T17:36:58.711Z,64.32
2022-11-22T17:39:26.069Z,42.97
2022-11-22T17:41:53.044Z,34.13
2022-11-22T17:44:20.532Z,34.50
2022-11-22T17:46:47.601Z,38.92
2022-11-22T17:49:16.242Z,39.70
2022-11-22T17:51:43.821Z,67.85
2022-11-22T17:54:11.125Z,42.55
2022-11-22T17:56:40.608Z,30.73
2022-11-22T17:59:07.880Z,34.65
2022-11-22T18:01:36.943Z,44.90
2022-11-22T18:04:04.483Z,45.33
2022-11-22T18:06:32.178Z,42.75
2022-11-22T18:09:00.909Z,26.73
2022-11-22T18:11:27.958Z,42.33
2022-11-22T18:13:55.422Z,46.65
2022-11-22T18:16:28.343Z,43.15
2022-11-22T18:18:57.827Z,39.55
2022-11-22T18:21:29.385Z,33.40
2022-11-22T18:24:01.199Z,30.50
2022-11-22T18:26:39.225Z,40.85
2022-11-22T18:31:56.510Z,46.30
2022-11-22T18:34:24.569Z,36.17
2022-11-22T18:37:00.441Z,32.47
2022-11-22T18:39:31.202Z,35.78
2022-11-22T18:41:59.120Z,55.78
2022-11-22T18:44:26.820Z,42.92
2022-11-22T18:46:54.280Z,52.30
2022-11-22T18:49:22.096Z,37.28
2022-11-22T18:51:49.466Z,30.23
2022-11-22T18:54:18.403Z,48.22
2022-11-22T18:56:45.517Z,40.85
2022-11-22T18:59:13.549Z,44.13
2022-11-22T19:01:41.560Z,35.53
2022-11-22T19:04:13.803Z,48.88
2022-11-22T19:06:42.285Z,42.47
2022-11-22T19:09:11.346Z,30.52
2022-11-22T19:11:38.715Z,37.72
2022-11-22T19:14:10.100Z,56.88
2022-11-22T19:16:37.506Z,34.67
2022-11-22T19:19:05.033Z,38.03
2022-11-22T19:21:32.409Z,44.75
2022-11-22T19:24:00.111Z,54.60
2022-11-22T19:26:28.124Z,49.13
2022-11-22T19:28:57.634Z,68.38
2022-11-22T19:31:28.974Z,56.03
2022-11-22T19:33:57.690Z,63.35
2022-11-22T19:36:32.707Z,62.78
2022-11-22T19:39:03.427Z,47.45
2022-11-22T19:41:31.087Z,45.75
2022-11-22T19:43:58.571Z,35.33
2022-11-22T19:46:26.158Z,31.58
2022-11-22T19:48:55.910Z,35.05
2022-11-22T19:51:24.296Z,29.10
2022-11-22T19:53:58.885Z,40.70
2022-11-22T19:56:30.276Z,41.80
2022-11-22T19:59:00.048Z,24.63
2022-11-22T20:01:29.833Z,33.80
2022-11-22T20:04:00.572Z,44.17
2022-11-22T20:06:28.312Z,41.58
2022-11-22T20:09:03.162Z,35.17
2022-11-22T20:11:30.204Z,29.27
2022-11-22T20:13:57.628Z,36.50
2022-11-22T20:16:27.642Z,43.55
2022-11-22T20:19:00.325Z,48.15
2022-11-22T20:21:30.851Z,51.13
2022-11-22T20:23:58.911Z,51.33
2022-11-22T20:26:26.099Z,36.13
2022-11-22T20:29:01.440Z,32.08
2022-11-22T20:31:31.681Z,41.85
2022-11-22T20:34:00.393Z,28.92
2022-11-22T20:36:29.582Z,22.52
2022-11-22T20:38:57.614Z,21.02
2022-11-22T20:41:27.214Z,26.58
2022-11-22T20:43:55.347Z,28.60
2022-11-22T20:46:24.505Z,41.55
2022-11-22T20:48:53.147Z,47.67
2022-11-22T20:51:25.539Z,47.72
2022-11-22T20:53:53.711Z,27.92
2022-11-22T20:56:20.974Z,29.55
2022-11-22T20:58:48.670Z,34.70
2022-11-22T21:01:24.709Z,25.02
2022-11-22T21:03:53.183Z,29.45
2022-11-22T21:06:24.972Z,28.70
2022-11-22T21:08:52.522Z,15.32
2022-11-22T21:11:24.985Z,27.15
2022-11-22T21:13:53.025Z,27.65
2022-11-22T21:16:23.738Z,25.55
2022-11-22T21:18:53.091Z,27.20
2022-11-22T21:21:23.161Z,28.85
2022-11-22T21:23:56.085Z,31.30
2022-11-22T21:26:25.114Z,33.78
2022-11-22T21:28:53.299Z,36.10
2022-11-22T21:31:21.155Z,27.15
2022-11-22T21:33:48.541Z,30.00
2022-11-22T21:36:15.651Z,28.17
2022-11-22T21:38:43.041Z,29.75
2022-11-22T21:41:39.257Z,25.67
2022-11-22T21:44:02.053Z,31.88
2022-11-22T21:46:29.143Z,29.67
2022-11-22T21:48:56.494Z,39.13
2022-11-22T21:51:26.199Z,32.30
2022-11-22T21:53:58.603Z,38.67
2022-11-22T21:56:26.439Z,33.65
2022-11-22T21:58:53.782Z,21.02
2022-11-22T22:01:21.114Z,26.27
2022-11-22T22:03:48.469Z,30.50
2022-11-22T22:06:15.566Z,40.72
2022-11-22T22:08:42.878Z,21.95
2022-11-22T22:11:09.901Z,23.27
2022-11-22T22:13:37.273Z,32.78
2022-11-22T22:16:12.711Z,24.52
2022-11-22T22:18:40.198Z,33.78
2022-11-22T22:21:09.069Z,25.70
2022-11-22T22:23:40.921Z,27.02
2022-11-22T22:26:10.321Z,25.25
2022-11-22T22:28:39.238Z,29.13
2022-11-22T22:31:10.473Z,26.00
2022-11-22T22:33:39.935Z,32.65
2022-11-22T22:36:08.672Z,29.85
2022-11-22T22:38:36.935Z,28.42
2022-11-22T22:41:05.237Z,23.70
2022-11-22T22:43:34.920Z,20.27
2022-11-22T22:46:07.196Z,23.70
2022-11-22T22:48:34.771Z,22.30
2022-11-22T22:51:33.293Z,29.52
2022-11-22T22:54:01.653Z,34.72
2022-11-22T22:56:30.201Z,30.10
2022-11-22T22:59:00.604Z,31.27
2022-11-22T23:01:30.086Z,30.75
2022-11-22T23:03:59.707Z,26.42
2022-11-22T23:06:31.745Z,30.30
2022-11-22T23:08:59.972Z,28.80
2022-11-22T23:11:48.549Z,28.75
2022-11-22T23:14:19.259Z,24.58
2022-11-22T23:16:46.487Z,25.25
2022-11-22T23:19:13.781Z,29.45
2022-11-22T23:21:40.873Z,29.75
2022-11-22T23:24:08.583Z,27.52
2022-11-22T23:26:35.623Z,22.05
2022-11-22T23:29:03.462Z,35.90
2022-11-22T23:31:30.854Z,35.78
2022-11-22T23:34:01.047Z,30.70
2022-11-22T23:36:28.968Z,34.53
2022-11-22T23:38:56.637Z,31.20
2022-11-22T23:41:24.796Z,29.75
2022-11-22T23:43:53.670Z,28.98
2022-11-22T23:46:21.091Z,33.25
2022-11-22T23:48:56.344Z,30.75
2022-11-22T23:51:26.278Z,26.98
2022-11-22T23:53:58.573Z,27.45
2022-11-22T23:56:26.870Z,30.35
2022-11-22T23:58:55.121Z,31.38
